sensor_id;sensor_type;location;lat;lon;timestamp;P1;durP1;ratioP1;P2;durP2;ratioP2
11960;SDS011;6040;49.358;11.140;2024-01-15T00:01:23;17.73;;;7.23;;
11960;SDS011;6040;49.358;11.140;2024-01-15T00:03:50;23.50;;;10.03;;
11960;SDS011;6040;49.358;11.140;2024-01-15T00:06:16;23.30;;;8.83;;
11960;SDS011;6040;49.358;11.140;2024-01-15T00:08:43;26.33;;;10.50;;
11960;SDS011;6040;49.358;11.140;2024-01-15T00:11:10;23.37;;;10.10;;
11960;SDS011;6040;49.358;11.140;2024-01-15T00:13:37;31.97;;;11.40;;
11960;SDS011;6040;49.358;11.140;2024-01-15T00:16:04;31.30;;;10.20;;
11960;SDS011;6040;49.358;11.140;2024-01-15T00:18:32;27.43;;;9.43;;
11960;SDS011;6040;49.358;11.140;2024-01-15T00:20:59;26.93;;;8.57;;
11960;SDS011;6040;49.358;11.140;2024-01-15T00:23:26;20.00;;;9.97;;
11960;SDS011;6040;49.358;11.140;2024-01-15T00:25:53;25.40;;;10.63;;
11960;SDS011;6040;49.358;11.140;2024-01-15T00:28:19;29.37;;;11.23;;
11960;SDS011;6040;49.358;11.140;2024-01-15T00:30:47;27.73;;;10.60;;
11960;SDS011;6040;49.358;11.140;2024-01-15T00:33:13;20.70;;;9.73;;
11960;SDS011;6040;49.358;11.140;2024-01-15T00:35:42;29.07;;;9.93;;
11960;SDS011;6040;49.358;11.140;2024-01-15T00:38:09;8.53;;;4.07;;
11960;SDS011;6040;49.358;11.140;2024-01-15T00:40:35;23.97;;;9.23;;
11960;SDS011;6040;49.358;11.140;2024-01-15T00:43:02;25.43;;;10.27;;
11960;SDS011;6040;49.358;11.140;2024-01-15T00:45:29;23.70;;;9.03;;
11960;SDS011;6040;49.358;11.140;2024-01-15T00:47:56;26.53;;;10.30;;
11960;SDS011;6040;49.358;11.140;2024-01-15T00:50:24;26.53;;;11.80;;
11960;SDS011;6040;49.358;11.140;2024-01-15T00:52:52;27.43;;;11.40;;
11960;SDS011;6040;49.358;11.140;2024-01-15T00:55:19;23.50;;;9.70;;
11960;SDS011;6040;49.358;11.140;2024-01-15T00:57:46;22.43;;;9.73;;
11960;SDS011;6040;49.358;11.140;2024-01-15T01:00:13;27.73;;;9.57;;
11960;SDS011;6040;49.358;11.140;2024-01-15T01:02:41;27.17;;;9.73;;
11960;SDS011;6040;49.358;11.140;2024-01-15T01:05:08;30.77;;;11.73;;
11960;SDS011;6040;49.358;11.140;2024-01-15T01:07:35;25.27;;;9.33;;
11960;SDS011;6040;49.358;11.140;2024-01-15T01:10:03;19.17;;;9.10;;
11960;SDS011;6040;49.358;11.140;2024-01-15T01:12:31;23.77;;;9.57;;
11960;SDS011;6040;49.358;11.140;2024-01-15T01:14:57;20.43;;;8.97;;
11960;SDS011;6040;49.358;11.140;2024-01-15T01:17:24;25.43;;;10.40;;
11960;SDS011;6040;49.358;11.140;2024-01-15T01:19:51;21.80;;;8.37;;
11960;SDS011;6040;49.358;11.140;2024-01-15T01:22:18;20.97;;;9.67;;
11960;SDS011;6040;49.358;11.140;2024-01-15T01:24:45;26.07;;;9.97;;
11960;SDS011;6040;49.358;11.140;2024-01-15T01:27:13;26.13;;;9.57;;
11960;SDS011;6040;49.358;11.140;2024-01-15T01:29:40;25.33;;;10.30;;
11960;SDS011;6040;49.358;11.140;2024-01-15T01:32:07;20.27;;;8.53;;
11960;SDS011;6040;49.358;11.140;2024-01-15T01:34:39;20.13;;;9.37;;
11960;SDS011;6040;49.358;11.140;2024-01-15T01:37:06;18.17;;;8.70;;
11960;SDS011;6040;49.358;11.140;2024-01-15T01:39:33;22.10;;;9.03;;
11960;SDS011;6040;49.358;11.140;2024-01-15T01:42:00;26.70;;;10.33;;
11960;SDS011;6040;49.358;11.140;2024-01-15T01:44:28;21.93;;;9.97;;
11960;SDS011;6040;49.358;11.140;2024-01-15T01:46:55;18.40;;;8.33;;
11960;SDS011;6040;49.358;11.140;2024-01-15T01:49:22;25.00;;;9.83;;
11960;SDS011;6040;49.358;11.140;2024-01-15T01:51:50;22.63;;;9.63;;
11960;SDS011;6040;49.358;11.140;2024-01-15T01:54:18;23.27;;;7.77;;
11960;SDS011;6040;49.358;11.140;2024-01-15T01:56:45;19.80;;;9.20;;
11960;SDS011;6040;49.358;11.140;2024-01-15T01:59:14;24.53;;;9.20;;
11960;SDS011;6040;49.358;11.140;2024-01-15T02:01:42;24.17;;;8.97;;
11960;SDS011;6040;49.358;11.140;2024-01-15T02:04:10;25.90;;;9.30;;
11960;SDS011;6040;49.358;11.140;2024-01-15T02:06:36;22.57;;;8.27;;
11960;SDS011;6040;49.358;11.140;2024-01-15T02:09:03;15.53;;;7.27;;
11960;SDS011;6040;49.358;11.140;2024-01-15T02:11:30;23.40;;;8.60;;
11960;SDS011;6040;49.358;11.140;2024-01-15T02:13:57;24.50;;;9.43;;
11960;SDS011;6040;49.358;11.140;2024-01-15T02:16:24;18.17;;;8.07;;
11960;SDS011;6040;49.358;11.140;2024-01-15T02:18:52;17.67;;;8.17;;
11960;SDS011;6040;49.358;11.140;2024-01-15T02:21:19;22.30;;;8.03;;
11960;SDS011;6040;49.358;11.140;2024-01-15T02:23:47;16.90;;;7.37;;
11960;SDS011;6040;49.358;11.140;2024-01-15T02:26:14;20.43;;;8.13;;
11960;SDS011;6040;49.358;11.140;2024-01-15T02:28:41;19.27;;;8.20;;
11960;SDS011;6040;49.358;11.140;2024-01-15T02:31:09;18.23;;;7.37;;
11960;SDS011;6040;49.358;11.140;2024-01-15T02:33:36;18.53;;;7.80;;
11960;SDS011;6040;49.358;11.140;2024-01-15T02:36:03;17.10;;;7.40;;
11960;SDS011;6040;49.358;11.140;2024-01-15T02:38:30;22.20;;;7.60;;
11960;SDS011;6040;49.358;11.140;2024-01-15T02:40:58;23.17;;;7.00;;
11960;SDS011;6040;49.358;11.140;2024-01-15T02:43:25;12.17;;;6.20;;
11960;SDS011;6040;49.358;11.140;2024-01-15T02:45:52;19.50;;;7.43;;
11960;SDS011;6040;49.358;11.140;2024-01-15T02:48:19;16.70;;;7.33;;
11960;SDS011;6040;49.358;11.140;2024-01-15T02:50:46;14.80;;;7.33;;
11960;SDS011;6040;49.358;11.140;2024-01-15T02:53:12;16.83;;;8.23;;
11960;SDS011;6040;49.358;11.140;2024-01-15T02:55:39;17.20;;;6.60;;
11960;SDS011;6040;49.358;11.140;2024-01-15T02:58:07;12.87;;;7.00;;
11960;SDS011;6040;49.358;11.140;2024-01-15T03:00:34;18.97;;;7.70;;
11960;SDS011;6040;49.358;11.140;2024-01-15T03:03:01;20.90;;;8.93;;
11960;SDS011;6040;49.358;11.140;2024-01-15T03:05:28;15.40;;;6.00;;
11960;SDS011;6040;49.358;11.140;2024-01-15T03:07:55;16.40;;;6.97;;
11960;SDS011;6040;49.358;11.140;2024-01-15T03:10:22;15.67;;;6.73;;
11960;SDS011;6040;49.358;11.140;2024-01-15T03:12:48;18.60;;;7.73;;
11960;SDS011;6040;49.358;11.140;2024-01-15T03:15:17;18.03;;;6.67;;
11960;SDS011;6040;49.358;11.140;2024-01-15T03:17:44;17.83;;;7.20;;
11960;SDS011;6040;49.358;11.140;2024-01-15T03:20:11;19.47;;;7.97;;
11960;SDS011;6040;49.358;11.140;2024-01-15T03:22:38;23.17;;;8.23;;
11960;SDS011;6040;49.358;11.140;2024-01-15T03:25:05;18.87;;;7.40;;
11960;SDS011;6040;49.358;11.140;2024-01-15T03:27:33;22.27;;;7.30;;
11960;SDS011;6040;49.358;11.140;2024-01-15T03:30:00;20.70;;;7.57;;
11960;SDS011;6040;49.358;11.140;2024-01-15T03:32:28;15.53;;;7.10;;
11960;SDS011;6040;49.358;11.140;2024-01-15T03:34:55;17.90;;;6.73;;
11960;SDS011;6040;49.358;11.140;2024-01-15T03:37:22;18.03;;;7.13;;
11960;SDS011;6040;49.358;11.140;2024-01-15T03:39:49;14.33;;;6.40;;
11960;SDS011;6040;49.358;11.140;2024-01-15T03:42:16;15.47;;;6.90;;
11960;SDS011;6040;49.358;11.140;2024-01-15T03:44:43;15.30;;;6.13;;
11960;SDS011;6040;49.358;11.140;2024-01-15T03:47:09;15.70;;;6.80;;
11960;SDS011;6040;49.358;11.140;2024-01-15T03:49:38;16.90;;;6.73;;
11960;SDS011;6040;49.358;11.140;2024-01-15T03:52:05;12.30;;;5.30;;
11960;SDS011;6040;49.358;11.140;2024-01-15T03:54:31;13.67;;;5.77;;
11960;SDS011;6040;49.358;11.140;2024-01-15T03:56:58;19.73;;;6.67;;
11960;SDS011;6040;49.358;11.140;2024-01-15T03:59:26;15.60;;;6.27;;
11960;SDS011;6040;49.358;11.140;2024-01-15T04:01:52;22.20;;;7.93;;
11960;SDS011;6040;49.358;11.140;2024-01-15T04:04:19;15.67;;;7.20;;
11960;SDS011;6040;49.358;11.140;2024-01-15T04:06:47;16.07;;;6.87;;
11960;SDS011;6040;49.358;11.140;2024-01-15T04:09:14;11.50;;;5.73;;
11960;SDS011;6040;49.358;11.140;2024-01-15T04:11:41;15.40;;;5.87;;
11960;SDS011;6040;49.358;11.140;2024-01-15T04:14:08;17.00;;;6.63;;
11960;SDS011;6040;49.358;11.140;2024-01-15T04:16:34;14.30;;;6.70;;
11960;SDS011;6040;49.358;11.140;2024-01-15T04:19:03;13.33;;;6.50;;
11960;SDS011;6040;49.358;11.140;2024-01-15T04:21:30;20.37;;;7.60;;
11960;SDS011;6040;49.358;11.140;2024-01-15T04:23:58;16.30;;;7.60;;
11960;SDS011;6040;49.358;11.140;2024-01-15T04:26:24;13.10;;;5.07;;
11960;SDS011;6040;49.358;11.140;2024-01-15T04:28:51;14.33;;;5.30;;
11960;SDS011;6040;49.358;11.140;2024-01-15T04:31:22;11.23;;;6.37;;
11960;SDS011;6040;49.358;11.140;2024-01-15T04:33:49;16.63;;;7.03;;
11960;SDS011;6040;49.358;11.140;2024-01-15T04:36:16;12.43;;;6.20;;
11960;SDS011;6040;49.358;11.140;2024-01-15T04:38:43;15.87;;;7.43;;
11960;SDS011;6040;49.358;11.140;2024-01-15T04:41:12;16.67;;;7.00;;
11960;SDS011;6040;49.358;11.140;2024-01-15T04:43:39;14.57;;;6.73;;
11960;SDS011;6040;49.358;11.140;2024-01-15T04:46:06;19.13;;;6.63;;
11960;SDS011;6040;49.358;11.140;2024-01-15T04:48:33;15.00;;;6.90;;
11960;SDS011;6040;49.358;11.140;2024-01-15T04:51:00;13.20;;;6.13;;
11960;SDS011;6040;49.358;11.140;2024-01-15T04:53:29;15.63;;;6.33;;
11960;SDS011;6040;49.358;11.140;2024-01-15T04:55:56;20.23;;;6.40;;
11960;SDS011;6040;49.358;11.140;2024-01-15T04:58:24;16.90;;;6.23;;
11960;SDS011;6040;49.358;11.140;2024-01-15T05:00:52;17.83;;;6.77;;
11960;SDS011;6040;49.358;11.140;2024-01-15T05:03:19;11.00;;;5.63;;
11960;SDS011;6040;49.358;11.140;2024-01-15T05:05:46;20.00;;;8.13;;
11960;SDS011;6040;49.358;11.140;2024-01-15T05:08:13;19.83;;;7.43;;
11960;SDS011;6040;49.358;11.140;2024-01-15T05:10:40;14.90;;;6.00;;
11960;SDS011;6040;49.358;11.140;2024-01-15T05:13:06;20.93;;;8.47;;
11960;SDS011;6040;49.358;11.140;2024-01-15T05:15:35;16.90;;;7.57;;
11960;SDS011;6040;49.358;11.140;2024-01-15T05:18:02;17.90;;;6.37;;
11960;SDS011;6040;49.358;11.140;2024-01-15T05:20:29;13.63;;;5.50;;
11960;SDS011;6040;49.358;11.140;2024-01-15T05:22:56;16.50;;;8.00;;
11960;SDS011;6040;49.358;11.140;2024-01-15T05:25:22;17.23;;;6.73;;
11960;SDS011;6040;49.358;11.140;2024-01-15T05:27:49;13.83;;;5.13;;
11960;SDS011;6040;49.358;11.140;2024-01-15T05:30:16;17.37;;;6.30;;
11960;SDS011;6040;49.358;11.140;2024-01-15T05:32:44;17.67;;;7.40;;
11960;SDS011;6040;49.358;11.140;2024-01-15T05:35:11;14.30;;;6.87;;
11960;SDS011;6040;49.358;11.140;2024-01-15T05:37:39;16.20;;;7.37;;
11960;SDS011;6040;49.358;11.140;2024-01-15T05:40:09;17.50;;;6.97;;
11960;SDS011;6040;49.358;11.140;2024-01-15T05:42:37;14.23;;;5.90;;
11960;SDS011;6040;49.358;11.140;2024-01-15T05:45:04;19.67;;;8.00;;
11960;SDS011;6040;49.358;11.140;2024-01-15T05:47:32;18.07;;;6.97;;
11960;SDS011;6040;49.358;11.140;2024-01-15T05:50:00;15.90;;;6.47;;
11960;SDS011;6040;49.358;11.140;2024-01-15T05:52:27;18.97;;;7.20;;
11960;SDS011;6040;49.358;11.140;2024-01-15T05:54:54;12.87;;;5.80;;
11960;SDS011;6040;49.358;11.140;2024-01-15T05:57:21;16.97;;;6.83;;
11960;SDS011;6040;49.358;11.140;2024-01-15T05:59:48;12.57;;;5.60;;
11960;SDS011;6040;49.358;11.140;2024-01-15T06:02:15;12.67;;;6.53;;
11960;SDS011;6040;49.358;11.140;2024-01-15T06:04:42;18.97;;;5.83;;
11960;SDS011;6040;49.358;11.140;2024-01-15T06:07:10;17.33;;;6.33;;
11960;SDS011;6040;49.358;11.140;2024-01-15T06:09:37;14.17;;;6.80;;
11960;SDS011;6040;49.358;11.140;2024-01-15T06:12:04;15.97;;;6.17;;
11960;SDS011;6040;49.358;11.140;2024-01-15T06:14:33;16.57;;;7.70;;
11960;SDS011;6040;49.358;11.140;2024-01-15T06:16:59;13.43;;;6.77;;
11960;SDS011;6040;49.358;11.140;2024-01-15T06:19:26;13.30;;;6.07;;
11960;SDS011;6040;49.358;11.140;2024-01-15T06:21:53;13.27;;;6.20;;
11960;SDS011;6040;49.358;11.140;2024-01-15T06:24:21;12.63;;;6.17;;
11960;SDS011;6040;49.358;11.140;2024-01-15T06:26:48;11.73;;;5.57;;
11960;SDS011;6040;49.358;11.140;2024-01-15T06:29:15;15.30;;;6.27;;
11960;SDS011;6040;49.358;11.140;2024-01-15T06:31:41;10.83;;;5.60;;
11960;SDS011;6040;49.358;11.140;2024-01-15T06:34:08;14.57;;;5.70;;
11960;SDS011;6040;49.358;11.140;2024-01-15T06:36:35;15.03;;;6.57;;
11960;SDS011;6040;49.358;11.140;2024-01-15T06:39:02;15.33;;;6.47;;
11960;SDS011;6040;49.358;11.140;2024-01-15T06:41:30;13.87;;;6.30;;
11960;SDS011;6040;49.358;11.140;2024-01-15T06:43:57;11.47;;;5.80;;
11960;SDS011;6040;49.358;11.140;2024-01-15T06:46:24;15.13;;;6.27;;
11960;SDS011;6040;49.358;11.140;2024-01-15T06:48:50;14.23;;;6.13;;
11960;SDS011;6040;49.358;11.140;2024-01-15T06:51:17;17.50;;;6.80;;
11960;SDS011;6040;49.358;11.140;2024-01-15T06:53:44;13.30;;;6.17;;
11960;SDS011;6040;49.358;11.140;2024-01-15T06:56:11;13.10;;;5.70;;
11960;SDS011;6040;49.358;11.140;2024-01-15T06:58:39;11.23;;;5.93;;
11960;SDS011;6040;49.358;11.140;2024-01-15T07:01:06;11.70;;;5.67;;
11960;SDS011;6040;49.358;11.140;2024-01-15T07:03:33;14.63;;;6.23;;
11960;SDS011;6040;49.358;11.140;2024-01-15T07:06:00;10.77;;;5.00;;
11960;SDS011;6040;49.358;11.140;2024-01-15T07:08:36;13.63;;;5.67;;
11960;SDS011;6040;49.358;11.140;2024-01-15T07:11:03;15.63;;;6.83;;
11960;SDS011;6040;49.358;11.140;2024-01-15T07:13:30;12.83;;;5.33;;
11960;SDS011;6040;49.358;11.140;2024-01-15T07:15:58;12.87;;;5.87;;
11960;SDS011;6040;49.358;11.140;2024-01-15T07:18:25;13.17;;;6.37;;
11960;SDS011;6040;49.358;11.140;2024-01-15T07:20:52;15.07;;;6.13;;
11960;SDS011;6040;49.358;11.140;2024-01-15T07:23:19;14.57;;;5.93;;
11960;SDS011;6040;49.358;11.140;2024-01-15T07:25:46;15.67;;;6.17;;
11960;SDS011;6040;49.358;11.140;2024-01-15T07:28:12;13.83;;;5.93;;
11960;SDS011;6040;49.358;11.140;2024-01-15T07:30:39;15.23;;;6.67;;
11960;SDS011;6040;49.358;11.140;2024-01-15T07:33:07;11.13;;;6.23;;
11960;SDS011;6040;49.358;11.140;2024-01-15T07:35:34;11.87;;;5.30;;
11960;SDS011;6040;49.358;11.140;2024-01-15T07:38:01;13.73;;;6.27;;
11960;SDS011;6040;49.358;11.140;2024-01-15T07:40:28;16.57;;;5.40;;
11960;SDS011;6040;49.358;11.140;2024-01-15T07:42:54;11.23;;;5.33;;
11960;SDS011;6040;49.358;11.140;2024-01-15T07:45:21;11.57;;;6.03;;
11960;SDS011;6040;49.358;11.140;2024-01-15T07:47:48;16.20;;;5.77;;
11960;SDS011;6040;49.358;11.140;2024-01-15T07:50:16;14.83;;;6.03;;
11960;SDS011;6040;49.358;11.140;2024-01-15T07:52:44;11.20;;;5.77;;
11960;SDS011;6040;49.358;11.140;2024-01-15T07:55:10;15.00;;;7.03;;
11960;SDS011;6040;49.358;11.140;2024-01-15T07:57:37;14.93;;;5.77;;
11960;SDS011;6040;49.358;11.140;2024-01-15T08:00:04;14.93;;;6.67;;
11960;SDS011;6040;49.358;11.140;2024-01-15T08:02:34;12.93;;;6.23;;
11960;SDS011;6040;49.358;11.140;2024-01-15T08:05:00;15.50;;;6.97;;
11960;SDS011;6040;49.358;11.140;2024-01-15T08:07:29;9.97;;;4.07;;
11960;SDS011;6040;49.358;11.140;2024-01-15T08:09:56;12.20;;;6.80;;
11960;SDS011;6040;49.358;11.140;2024-01-15T08:12:23;12.13;;;6.20;;
11960;SDS011;6040;49.358;11.140;2024-01-15T08:14:50;9.33;;;5.73;;
11960;SDS011;6040;49.358;11.140;2024-01-15T08:17:18;9.90;;;6.27;;
11960;SDS011;6040;49.358;11.140;2024-01-15T08:19:44;16.83;;;6.60;;
11960;SDS011;6040;49.358;11.140;2024-01-15T08:22:11;9.87;;;6.13;;
11960;SDS011;6040;49.358;11.140;2024-01-15T08:24:39;11.77;;;5.67;;
11960;SDS011;6040;49.358;11.140;2024-01-15T08:27:06;12.63;;;6.43;;
11960;SDS011;6040;49.358;11.140;2024-01-15T08:29:33;15.47;;;6.50;;
11960;SDS011;6040;49.358;11.140;2024-01-15T08:32:00;11.50;;;5.90;;
11960;SDS011;6040;49.358;11.140;2024-01-15T08:34:27;13.67;;;6.17;;
11960;SDS011;6040;49.358;11.140;2024-01-15T08:36:54;12.53;;;5.97;;
11960;SDS011;6040;49.358;11.140;2024-01-15T08:39:21;13.57;;;6.17;;
11960;SDS011;6040;49.358;11.140;2024-01-15T08:41:49;14.03;;;6.40;;
11960;SDS011;6040;49.358;11.140;2024-01-15T08:44:16;10.27;;;4.73;;
11960;SDS011;6040;49.358;11.140;2024-01-15T08:46:43;14.03;;;5.83;;
11960;SDS011;6040;49.358;11.140;2024-01-15T08:49:09;9.90;;;5.60;;
11960;SDS011;6040;49.358;11.140;2024-01-15T08:51:36;12.67;;;5.13;;
11960;SDS011;6040;49.358;11.140;2024-01-15T08:54:04;13.17;;;5.83;;
11960;SDS011;6040;49.358;11.140;2024-01-15T08:56:33;13.00;;;4.80;;
11960;SDS011;6040;49.358;11.140;2024-01-15T08:59:01;12.40;;;5.30;;
11960;SDS011;6040;49.358;11.140;2024-01-15T09:01:28;13.77;;;5.80;;
11960;SDS011;6040;49.358;11.140;2024-01-15T09:03:56;11.67;;;6.20;;
11960;SDS011;6040;49.358;11.140;2024-01-15T09:06:23;11.00;;;5.67;;
11960;SDS011;6040;49.358;11.140;2024-01-15T09:08:49;14.60;;;6.03;;
11960;SDS011;6040;49.358;11.140;2024-01-15T09:11:16;8.33;;;5.40;;
11960;SDS011;6040;49.358;11.140;2024-01-15T09:13:43;11.73;;;5.70;;
11960;SDS011;6040;49.358;11.140;2024-01-15T09:16:11;8.90;;;5.07;;
11960;SDS011;6040;49.358;11.140;2024-01-15T09:18:38;10.37;;;6.00;;
11960;SDS011;6040;49.358;11.140;2024-01-15T09:21:05;10.60;;;5.77;;
11960;SDS011;6040;49.358;11.140;2024-01-15T09:23:32;7.93;;;5.20;;
11960;SDS011;6040;49.358;11.140;2024-01-15T09:25:58;9.93;;;5.30;;
11960;SDS011;6040;49.358;11.140;2024-01-15T09:28:25;9.43;;;5.00;;
11960;SDS011;6040;49.358;11.140;2024-01-15T09:30:52;8.70;;;5.27;;
11960;SDS011;6040;49.358;11.140;2024-01-15T09:33:20;7.87;;;5.20;;
11960;SDS011;6040;49.358;11.140;2024-01-15T09:35:47;11.70;;;5.43;;
11960;SDS011;6040;49.358;11.140;2024-01-15T09:38:14;8.10;;;4.80;;
11960;SDS011;6040;49.358;11.140;2024-01-15T09:40:40;9.73;;;5.77;;
11960;SDS011;6040;49.358;11.140;2024-01-15T09:43:11;10.73;;;5.83;;
11960;SDS011;6040;49.358;11.140;2024-01-15T09:45:39;9.27;;;4.20;;
11960;SDS011;6040;49.358;11.140;2024-01-15T09:48:06;10.33;;;5.53;;
11960;SDS011;6040;49.358;11.140;2024-01-15T09:50:35;12.53;;;6.17;;
11960;SDS011;6040;49.358;11.140;2024-01-15T09:53:02;10.43;;;5.00;;
11960;SDS011;6040;49.358;11.140;2024-01-15T09:55:30;10.33;;;5.87;;
11960;SDS011;6040;49.358;11.140;2024-01-15T09:57:57;11.90;;;6.20;;
11960;SDS011;6040;49.358;11.140;2024-01-15T10:00:26;13.20;;;6.90;;
11960;SDS011;6040;49.358;11.140;2024-01-15T10:02:53;10.50;;;5.10;;
11960;SDS011;6040;49.358;11.140;2024-01-15T10:05:20;11.70;;;6.00;;
11960;SDS011;6040;49.358;11.140;2024-01-15T10:07:48;12.37;;;6.53;;
11960;SDS011;6040;49.358;11.140;2024-01-15T10:10:17;9.77;;;5.70;;
11960;SDS011;6040;49.358;11.140;2024-01-15T10:12:44;10.80;;;5.97;;
11960;SDS011;6040;49.358;11.140;2024-01-15T10:15:11;8.23;;;5.27;;
11960;SDS011;6040;49.358;11.140;2024-01-15T10:17:38;9.30;;;5.27;;
11960;SDS011;6040;49.358;11.140;2024-01-15T10:20:07;10.50;;;6.90;;
11960;SDS011;6040;49.358;11.140;2024-01-15T10:22:35;12.60;;;5.57;;
11960;SDS011;6040;49.358;11.140;2024-01-15T10:25:06;10.23;;;5.77;;
11960;SDS011;6040;49.358;11.140;2024-01-15T10:27:36;8.57;;;4.83;;
11960;SDS011;6040;49.358;11.140;2024-01-15T10:30:03;12.80;;;5.80;;
11960;SDS011;6040;49.358;11.140;2024-01-15T10:32:31;13.43;;;5.63;;
11960;SDS011;6040;49.358;11.140;2024-01-15T10:34:58;10.20;;;6.13;;
11960;SDS011;6040;49.358;11.140;2024-01-15T10:37:25;9.63;;;5.33;;
11960;SDS011;6040;49.358;11.140;2024-01-15T10:39:52;8.97;;;5.43;;
11960;SDS011;6040;49.358;11.140;2024-01-15T10:42:20;10.10;;;5.80;;
11960;SDS011;6040;49.358;11.140;2024-01-15T10:44:47;12.07;;;6.17;;
11960;SDS011;6040;49.358;11.140;2024-01-15T10:47:14;9.17;;;5.60;;
11960;SDS011;6040;49.358;11.140;2024-01-15T10:49:41;10.53;;;6.00;;
11960;SDS011;6040;49.358;11.140;2024-01-15T10:52:08;10.67;;;6.20;;
11960;SDS011;6040;49.358;11.140;2024-01-15T10:54:35;10.77;;;6.10;;
11960;SDS011;6040;49.358;11.140;2024-01-15T10:57:03;9.80;;;5.73;;
11960;SDS011;6040;49.358;11.140;2024-01-15T10:59:32;10.50;;;6.17;;
11960;SDS011;6040;49.358;11.140;2024-01-15T11:02:00;10.77;;;5.47;;
11960;SDS011;6040;49.358;11.140;2024-01-15T11:04:26;9.20;;;5.57;;
11960;SDS011;6040;49.358;11.140;2024-01-15T11:06:54;9.20;;;5.20;;
11960;SDS011;6040;49.358;11.140;2024-01-15T11:09:22;7.47;;;4.67;;
11960;SDS011;6040;49.358;11.140;2024-01-15T11:11:52;9.10;;;4.83;;
11960;SDS011;6040;49.358;11.140;2024-01-15T11:14:38;8.27;;;4.80;;
11960;SDS011;6040;49.358;11.140;2024-01-15T11:17:05;8.23;;;4.83;;
11960;SDS011;6040;49.358;11.140;2024-01-15T11:19:36;10.73;;;6.10;;
11960;SDS011;6040;49.358;11.140;2024-01-15T11:22:05;10.90;;;5.50;;
11960;SDS011;6040;49.358;11.140;2024-01-15T11:24:33;8.87;;;5.80;;
11960;SDS011;6040;49.358;11.140;2024-01-15T11:27:04;11.20;;;6.23;;
11960;SDS011;6040;49.358;11.140;2024-01-15T11:29:32;9.17;;;5.20;;
11960;SDS011;6040;49.358;11.140;2024-01-15T11:32:05;12.57;;;5.37;;
11960;SDS011;6040;49.358;11.140;2024-01-15T11:34:52;9.73;;;5.47;;
11960;SDS011;6040;49.358;11.140;2024-01-15T11:37:19;10.07;;;5.73;;
11960;SDS011;6040;49.358;11.140;2024-01-15T11:39:49;9.23;;;5.20;;
11960;SDS011;6040;49.358;11.140;2024-01-15T11:42:19;8.03;;;5.20;;
11960;SDS011;6040;49.358;11.140;2024-01-15T11:44:46;9.77;;;5.77;;
11960;SDS011;6040;49.358;11.140;2024-01-15T11:47:14;12.33;;;5.73;;
11960;SDS011;6040;49.358;11.140;2024-01-15T11:49:58;9.77;;;5.87;;
11960;SDS011;6040;49.358;11.140;2024-01-15T11:52:26;12.10;;;5.87;;
11960;SDS011;6040;49.358;11.140;2024-01-15T11:55:00;9.93;;;6.10;;
11960;SDS011;6040;49.358;11.140;2024-01-15T11:57:37;10.13;;;5.27;;
11960;SDS011;6040;49.358;11.140;2024-01-15T12:00:08;9.47;;;5.93;;
11960;SDS011;6040;49.358;11.140;2024-01-15T12:02:38;10.40;;;5.70;;
11960;SDS011;6040;49.358;11.140;2024-01-15T12:05:05;12.30;;;5.90;;
11960;SDS011;6040;49.358;11.140;2024-01-15T12:07:33;11.27;;;6.23;;
11960;SDS011;6040;49.358;11.140;2024-01-15T12:09:59;8.90;;;5.93;;
11960;SDS011;6040;49.358;11.140;2024-01-15T12:12:28;12.63;;;5.80;;
11960;SDS011;6040;49.358;11.140;2024-01-15T12:15:04;9.87;;;6.07;;
11960;SDS011;6040;49.358;11.140;2024-01-15T12:17:31;9.40;;;5.60;;
11960;SDS011;6040;49.358;11.140;2024-01-15T12:19:59;10.43;;;6.57;;
11960;SDS011;6040;49.358;11.140;2024-01-15T12:22:26;10.57;;;5.43;;
11960;SDS011;6040;49.358;11.140;2024-01-15T12:24:53;10.33;;;6.00;;
11960;SDS011;6040;49.358;11.140;2024-01-15T12:27:20;7.97;;;5.50;;
11960;SDS011;6040;49.358;11.140;2024-01-15T12:29:48;10.90;;;6.07;;
11960;SDS011;6040;49.358;11.140;2024-01-15T12:32:14;9.50;;;6.30;;
11960;SDS011;6040;49.358;11.140;2024-01-15T12:34:41;10.93;;;5.57;;
11960;SDS011;6040;49.358;11.140;2024-01-15T12:37:11;8.87;;;5.70;;
11960;SDS011;6040;49.358;11.140;2024-01-15T12:39:37;9.30;;;5.93;;
11960;SDS011;6040;49.358;11.140;2024-01-15T12:42:04;10.13;;;5.30;;
11960;SDS011;6040;49.358;11.140;2024-01-15T12:44:31;8.33;;;5.50;;
11960;SDS011;6040;49.358;11.140;2024-01-15T12:46:58;9.33;;;5.33;;
11960;SDS011;6040;49.358;11.140;2024-01-15T12:49:25;9.93;;;5.03;;
11960;SDS011;6040;49.358;11.140;2024-01-15T12:51:52;10.57;;;5.23;;
11960;SDS011;6040;49.358;11.140;2024-01-15T12:54:22;8.53;;;5.27;;
11960;SDS011;6040;49.358;11.140;2024-01-15T12:56:49;9.93;;;5.30;;
11960;SDS011;6040;49.358;11.140;2024-01-15T12:59:16;7.93;;;5.10;;
11960;SDS011;6040;49.358;11.140;2024-01-15T13:01:43;11.73;;;6.60;;
11960;SDS011;6040;49.358;11.140;2024-01-15T13:04:11;8.77;;;5.73;;
11960;SDS011;6040;49.358;11.140;2024-01-15T13:06:46;9.23;;;4.60;;
11960;SDS011;6040;49.358;11.140;2024-01-15T13:09:14;9.07;;;4.97;;
11960;SDS011;6040;49.358;11.140;2024-01-15T13:11:43;10.07;;;5.53;;
11960;SDS011;6040;49.358;11.140;2024-01-15T13:14:10;7.33;;;5.40;;
11960;SDS011;6040;49.358;11.140;2024-01-15T13:16:38;13.00;;;6.57;;
11960;SDS011;6040;49.358;11.140;2024-01-15T13:19:06;7.47;;;4.93;;
11960;SDS011;6040;49.358;11.140;2024-01-15T13:21:34;12.63;;;6.17;;
11960;SDS011;6040;49.358;11.140;2024-01-15T13:24:01;9.53;;;6.00;;
11960;SDS011;6040;49.358;11.140;2024-01-15T13:26:30;10.53;;;5.60;;
11960;SDS011;6040;49.358;11.140;2024-01-15T13:28:58;9.00;;;5.17;;
11960;SDS011;6040;49.358;11.140;2024-01-15T13:31:25;7.07;;;4.83;;
11960;SDS011;6040;49.358;11.140;2024-01-15T13:33:52;10.93;;;5.73;;
11960;SDS011;6040;49.358;11.140;2024-01-15T13:36:20;10.30;;;4.83;;
11960;SDS011;6040;49.358;11.140;2024-01-15T13:38:48;9.50;;;5.60;;
11960;SDS011;6040;49.358;11.140;2024-01-15T13:41:15;10.47;;;5.37;;
11960;SDS011;6040;49.358;11.140;2024-01-15T13:43:43;7.53;;;4.70;;
11960;SDS011;6040;49.358;11.140;2024-01-15T13:46:16;8.30;;;4.77;;
11960;SDS011;6040;49.358;11.140;2024-01-15T13:48:43;8.00;;;4.93;;
11960;SDS011;6040;49.358;11.140;2024-01-15T13:51:10;9.33;;;5.10;;
11960;SDS011;6040;49.358;11.140;2024-01-15T13:53:37;8.07;;;4.93;;
11960;SDS011;6040;49.358;11.140;2024-01-15T13:56:05;10.67;;;5.60;;
11960;SDS011;6040;49.358;11.140;2024-01-15T13:58:32;10.47;;;5.60;;
11960;SDS011;6040;49.358;11.140;2024-01-15T14:00:59;8.27;;;5.67;;
11960;SDS011;6040;49.358;11.140;2024-01-15T14:03:27;9.93;;;6.00;;
11960;SDS011;6040;49.358;11.140;2024-01-15T14:05:54;9.37;;;5.27;;
11960;SDS011;6040;49.358;11.140;2024-01-15T14:08:21;9.53;;;5.50;;
11960;SDS011;6040;49.358;11.140;2024-01-15T14:10:48;9.70;;;5.47;;
11960;SDS011;6040;49.358;11.140;2024-01-15T14:13:15;9.63;;;5.23;;
11960;SDS011;6040;49.358;11.140;2024-01-15T14:15:42;10.97;;;6.03;;
11960;SDS011;6040;49.358;11.140;2024-01-15T14:18:09;10.57;;;5.80;;
11960;SDS011;6040;49.358;11.140;2024-01-15T14:20:37;8.87;;;5.23;;
11960;SDS011;6040;49.358;11.140;2024-01-15T14:23:04;9.53;;;5.67;;
11960;SDS011;6040;49.358;11.140;2024-01-15T14:25:31;10.30;;;5.23;;
11960;SDS011;6040;49.358;11.140;2024-01-15T14:27:58;7.83;;;4.93;;
11960;SDS011;6040;49.358;11.140;2024-01-15T14:30:25;12.33;;;6.07;;
11960;SDS011;6040;49.358;11.140;2024-01-15T14:32:52;8.93;;;5.57;;
11960;SDS011;6040;49.358;11.140;2024-01-15T14:35:19;9.37;;;5.70;;
11960;SDS011;6040;49.358;11.140;2024-01-15T14:37:47;11.87;;;6.00;;